createdAt,value
2019-01-17T00:01:41.663Z,18.00
2019-01-17T00:04:35.049Z,17.27
2019-01-17T00:07:29.034Z,15.83
2019-01-17T00:10:23.135Z,14.07
2019-01-17T00:13:04.643Z,17.50
2019-01-17T00:15:57.387Z,16.17
2019-01-17T00:18:39.578Z,16.47
2019-01-17T00:21:30.316Z,15.10
2019-01-17T00:24:08.113Z,15.37
2019-01-17T00:26:55.102Z,13.37
2019-01-17T00:29:45.654Z,15.83
2019-01-17T00:32:29.056Z,15.63
2019-01-17T00:35:19.781Z,15.30
2019-01-17T00:38:19.840Z,14.90
2019-01-17T00:41:07.662Z,14.63
2019-01-17T00:44:13.805Z,15.43
2019-01-17T00:47:00.250Z,15.57
2019-01-17T00:49:50.597Z,15.20
2019-01-17T00:52:40.533Z,15.67
2019-01-17T00:55:27.529Z,16.03
2019-01-17T00:58:02.844Z,15.33
2019-01-17T01:00:51.233Z,14.97
2019-01-17T01:03:36.890Z,17.17
2019-01-17T01:06:27.886Z,16.17
2019-01-17T01:09:30.870Z,16.33
2019-01-17T01:12:10.674Z,15.80
2019-01-17T01:14:56.833Z,14.97
2019-01-17T01:17:47.916Z,14.13
2019-01-17T01:20:31.556Z,13.83
2019-01-17T01:23:18.248Z,14.33
2019-01-17T01:26:22.116Z,15.00
2019-01-17T01:29:08.928Z,14.10
2019-01-17T01:31:47.406Z,13.53
2019-01-17T01:34:42.335Z,13.13
2019-01-17T01:37:33.175Z,12.73
2019-01-17T01:40:22.853Z,12.67
2019-01-17T01:43:18.651Z,12.70
2019-01-17T01:46:00.411Z,12.70
2019-01-17T01:48:48.184Z,12.40
2019-01-17T01:51:26.315Z,11.37
2019-01-17T01:53:58.233Z,12.20
2019-01-17T01:56:27.721Z,11.97
2019-01-17T01:58:56.561Z,11.20
2019-01-17T02:01:25.932Z,10.70
2019-01-17T02:03:54.737Z,10.30
2019-01-17T02:06:23.790Z,10.90
2019-01-17T02:08:54.918Z,11.07
2019-01-17T02:11:24.699Z,12.00
2019-01-17T02:13:55.042Z,10.00
2019-01-17T02:16:25.043Z,11.40
2019-01-17T02:18:54.804Z,10.10
2019-01-17T02:21:24.938Z,9.73
2019-01-17T02:23:54.816Z,8.57
2019-01-17T02:26:24.708Z,9.53
2019-01-17T02:28:54.338Z,8.90
2019-01-17T02:31:23.969Z,9.87
2019-01-17T02:33:53.866Z,10.23
2019-01-17T02:36:23.611Z,8.40
2019-01-17T02:38:53.029Z,7.27
2019-01-17T02:41:22.897Z,7.63
2019-01-17T02:43:53.021Z,6.50
2019-01-17T02:46:22.778Z,6.57
2019-01-17T02:48:52.296Z,6.37
2019-01-17T02:51:22.539Z,5.70
2019-01-17T02:53:52.059Z,4.97
2019-01-17T02:56:21.585Z,5.70
2019-01-17T02:58:51.101Z,5.97
2019-01-17T03:01:20.502Z,5.77
2019-01-17T03:03:50.143Z,5.93
2019-01-17T03:06:19.666Z,5.77
2019-01-17T03:08:49.185Z,5.07
2019-01-17T03:11:18.587Z,5.13
2019-01-17T03:13:47.988Z,5.10
2019-01-17T03:16:16.777Z,5.23
2019-01-17T03:18:45.956Z,4.73
2019-01-17T03:21:14.815Z,4.90
2019-01-17T03:23:44.117Z,4.60
2019-01-17T03:26:13.634Z,4.00
2019-01-17T03:28:42.426Z,3.63
2019-01-17T03:31:11.542Z,3.53
2019-01-17T03:33:40.377Z,3.60
2019-01-17T03:36:09.204Z,3.57
2019-01-17T03:38:44.146Z,3.53
2019-01-17T03:41:13.903Z,3.70
2019-01-17T03:43:43.644Z,3.50
2019-01-17T03:46:13.310Z,2.97
2019-01-17T03:48:43.055Z,3.00
2019-01-17T03:51:12.806Z,3.20
2019-01-17T03:53:42.699Z,3.27
2019-01-17T03:56:12.331Z,3.20
2019-01-17T03:58:42.335Z,3.17
2019-01-17T04:01:11.979Z,3.00
2019-01-17T04:03:41.865Z,2.27
2019-01-17T04:06:11.522Z,3.03
2019-01-17T04:08:41.014Z,2.23
2019-01-17T04:11:10.537Z,2.60
2019-01-17T04:13:40.059Z,2.13
2019-01-17T04:16:09.820Z,2.47
2019-01-17T04:18:38.587Z,2.30
2019-01-17T04:21:07.356Z,2.43
2019-01-17T04:23:36.493Z,2.30
2019-01-17T04:26:05.559Z,2.20
2019-01-17T04:28:34.642Z,2.10
2019-01-17T04:31:04.735Z,2.30
2019-01-17T04:33:34.397Z,2.10
2019-01-17T04:36:04.160Z,2.40
2019-01-17T04:38:34.626Z,2.23
2019-01-17T04:41:04.507Z,1.73
2019-01-17T04:43:34.261Z,2.20
2019-01-17T04:46:04.391Z,2.67
2019-01-17T04:48:34.265Z,2.40
2019-01-17T04:51:04.264Z,2.40
2019-01-17T04:53:33.808Z,2.30
2019-01-17T04:56:03.305Z,2.63
2019-01-17T04:58:33.312Z,2.50
2019-01-17T05:01:03.190Z,2.77
2019-01-17T05:03:32.036Z,2.90
2019-01-17T05:06:01.015Z,2.80
2019-01-17T05:08:29.805Z,2.90
2019-01-17T05:10:58.611Z,2.73
2019-01-17T05:13:27.499Z,2.97
2019-01-17T05:15:56.619Z,2.97
2019-01-17T05:18:25.427Z,3.10
2019-01-17T05:20:54.225Z,2.70
2019-01-17T05:23:23.295Z,3.00
2019-01-17T05:25:52.067Z,3.00
2019-01-17T05:28:20.938Z,2.90
2019-01-17T05:30:51.098Z,3.23
2019-01-17T05:33:20.858Z,2.87
2019-01-17T05:35:50.059Z,3.13
2019-01-17T05:38:19.326Z,3.43
2019-01-17T05:40:48.577Z,3.60
2019-01-17T05:43:18.882Z,2.80
2019-01-17T05:45:48.766Z,3.20
2019-01-17T05:48:18.404Z,3.53
2019-01-17T05:50:48.405Z,3.90
2019-01-17T05:53:17.929Z,3.80
2019-01-17T05:55:47.448Z,4.37
2019-01-17T05:58:16.848Z,3.80
2019-01-17T06:00:46.250Z,3.53
2019-01-17T06:03:16.012Z,3.70
2019-01-17T06:05:45.892Z,3.70
2019-01-17T06:08:16.134Z,4.03
2019-01-17T06:10:45.778Z,4.00
2019-01-17T06:13:15.894Z,4.27
2019-01-17T06:15:45.776Z,3.30
2019-01-17T06:18:15.537Z,3.23
2019-01-17T06:20:45.298Z,5.30
2019-01-17T06:23:14.939Z,4.23
2019-01-17T06:25:45.181Z,4.20
2019-01-17T06:28:14.942Z,4.30
2019-01-17T06:30:44.824Z,4.50
2019-01-17T06:33:14.823Z,3.97
2019-01-17T06:35:44.828Z,4.00
2019-01-17T06:38:14.585Z,4.30
2019-01-17T06:40:44.345Z,4.07
2019-01-17T06:46:43.392Z,4.40
2019-01-17T06:49:14.109Z,4.20
2019-01-17T06:51:44.152Z,4.33
2019-01-17T06:54:14.148Z,4.37
2019-01-17T06:56:47.112Z,4.53
2019-01-17T06:59:17.145Z,4.67
2019-01-17T07:01:47.861Z,5.10
2019-01-17T07:04:17.986Z,4.70
2019-01-17T07:06:48.588Z,4.20
2019-01-17T07:09:19.429Z,3.83
2019-01-17T07:11:50.147Z,4.30
2019-01-17T07:14:20.632Z,5.20
2019-01-17T07:16:51.469Z,6.13
2019-01-17T07:19:22.432Z,5.83
2019-01-17T07:21:53.392Z,4.97
2019-01-17T07:24:24.712Z,4.30
2019-01-17T07:26:55.552Z,4.90
2019-01-17T07:29:26.870Z,4.43
2019-01-17T07:31:58.190Z,4.77
2019-01-17T07:34:29.391Z,4.63
2019-01-17T07:37:00.112Z,4.43
2019-01-17T07:39:37.672Z,5.00
2019-01-17T07:42:08.149Z,4.70
2019-01-17T07:44:44.874Z,4.90
2019-01-17T07:47:15.867Z,4.60
2019-01-17T07:49:46.432Z,5.30
2019-01-17T07:52:17.395Z,5.60
2019-01-17T07:54:51.112Z,4.47
2019-01-17T07:57:21.470Z,5.07
2019-01-17T07:59:52.322Z,5.00
2019-01-17T08:02:23.030Z,4.93
2019-01-17T08:04:54.112Z,4.60
2019-01-17T08:07:24.597Z,4.77
2019-01-17T08:09:55.192Z,4.57
2019-01-17T08:12:25.430Z,4.63
2019-01-17T08:14:56.159Z,4.90
2019-01-17T08:17:26.878Z,4.37
2019-01-17T08:19:56.634Z,5.27
2019-01-17T08:22:26.396Z,4.60
2019-01-17T08:24:56.392Z,4.63
2019-01-17T08:27:26.874Z,4.70
2019-01-17T08:29:56.754Z,4.37
2019-01-17T08:32:26.875Z,4.50
2019-01-17T08:34:56.514Z,4.57
2019-01-17T08:37:26.155Z,4.73
2019-01-17T08:39:56.155Z,4.67
2019-01-17T08:42:26.278Z,4.17
2019-01-17T08:44:56.038Z,5.00
2019-01-17T08:47:25.809Z,5.23
2019-01-17T08:49:56.897Z,5.07
2019-01-17T08:52:25.941Z,4.60
2019-01-17T08:54:55.433Z,5.17
2019-01-17T08:57:24.619Z,4.63
2019-01-17T08:59:53.753Z,4.40
2019-01-17T09:02:23.222Z,4.93
2019-01-17T09:04:52.679Z,5.60
2019-01-17T09:07:22.074Z,4.70
2019-01-17T09:09:51.237Z,4.70
2019-01-17T09:12:20.515Z,4.90
2019-01-17T09:14:49.697Z,4.67
2019-01-17T09:17:18.954Z,3.77
2019-01-17T09:19:48.137Z,4.70
2019-01-17T09:22:17.186Z,4.80
2019-01-17T09:24:46.796Z,4.30
2019-01-17T09:27:16.197Z,5.10
2019-01-17T09:29:45.257Z,5.07
2019-01-17T09:32:16.564Z,5.13
2019-01-17T09:34:47.062Z,5.77
2019-01-17T09:37:16.465Z,5.50
2019-01-17T09:39:46.800Z,5.23
2019-01-17T09:42:15.982Z,4.93
2019-01-17T09:44:47.055Z,6.63
2019-01-17T09:47:17.176Z,4.37
2019-01-17T09:49:47.062Z,5.33
2019-01-17T09:52:17.616Z,5.60
2019-01-17T09:54:47.784Z,5.83
2019-01-17T09:57:16.820Z,4.50
2019-01-17T09:59:46.078Z,5.00
2019-01-17T10:02:15.504Z,4.80
2019-01-17T10:04:44.907Z,4.13
2019-01-17T10:07:14.178Z,4.40
2019-01-17T10:09:43.678Z,4.47
2019-01-17T10:12:12.860Z,4.53
2019-01-17T10:14:42.850Z,4.03
2019-01-17T10:17:24.988Z,4.50
2019-01-17T10:20:29.236Z,3.43
2019-01-17T10:23:38.639Z,4.20
2019-01-17T10:26:41.424Z,3.67
2019-01-17T10:29:37.222Z,4.60
2019-01-17T10:32:43.464Z,5.00
2019-01-17T10:35:44.523Z,4.20
2019-01-17T10:38:52.110Z,4.57
2019-01-17T10:42:00.277Z,4.07
2019-01-17T10:45:09.363Z,4.37
2019-01-17T10:48:08.803Z,4.20
2019-01-17T10:51:17.924Z,4.27
2019-01-17T10:54:22.248Z,3.73
2019-01-17T10:57:25.969Z,4.20
2019-01-17T11:00:12.290Z,4.07
2019-01-17T11:03:00.890Z,3.30
2019-01-17T11:05:52.251Z,4.00
2019-01-17T11:08:58.252Z,3.57
2019-01-17T11:11:39.055Z,3.97
2019-01-17T11:14:44.936Z,3.57
2019-01-17T11:17:55.616Z,3.93
2019-01-17T11:20:52.140Z,3.50
2019-01-17T11:23:32.338Z,3.17
2019-01-17T11:26:57.780Z,3.37
2019-01-17T11:29:42.660Z,2.93
2019-01-17T11:32:56.701Z,3.27
2019-01-17T11:35:54.428Z,2.77
2019-01-17T11:38:56.465Z,3.67
2019-01-17T11:41:41.711Z,3.33
2019-01-17T11:44:51.908Z,3.30
2019-01-17T11:48:00.907Z,3.33
2019-01-17T11:50:58.150Z,4.00
2019-01-17T11:53:50.229Z,3.20
2019-01-17T11:56:59.114Z,3.37
2019-01-17T11:59:59.593Z,3.50
2019-01-17T12:02:56.357Z,3.00
2019-01-17T12:05:25.878Z,3.43
2019-01-17T12:07:55.036Z,3.07
2019-01-17T12:10:24.558Z,3.60
2019-01-17T12:12:54.199Z,3.50
2019-01-17T12:15:23.719Z,3.30
2019-01-17T12:17:53.004Z,2.50
2019-01-17T12:20:22.162Z,3.20
2019-01-17T12:22:52.782Z,2.87
2019-01-17T12:25:22.163Z,3.13
2019-01-17T12:27:51.445Z,2.77
2019-01-17T12:30:20.727Z,3.17
2019-01-17T12:32:50.128Z,3.20
2019-01-17T12:35:19.412Z,2.97
2019-01-17T12:37:48.569Z,3.37
2019-01-17T12:40:17.969Z,3.40
2019-01-17T12:42:47.733Z,4.50
2019-01-17T12:45:17.373Z,3.57
2019-01-17T12:47:46.896Z,2.80
2019-01-17T12:50:18.572Z,3.20
2019-01-17T12:52:47.860Z,3.20
2019-01-17T12:55:17.135Z,2.73
2019-01-17T12:57:46.776Z,2.93
2019-01-17T13:00:21.097Z,2.73
2019-01-17T13:02:50.379Z,2.50
2019-01-17T13:05:19.541Z,2.57
2019-01-17T13:07:49.060Z,2.97
2019-01-17T13:10:19.303Z,2.57
2019-01-17T13:12:48.583Z,2.27
2019-01-17T13:15:17.984Z,2.30
2019-01-17T13:17:47.266Z,1.80
2019-01-17T13:20:17.388Z,1.57
2019-01-17T13:22:46.789Z,1.50
2019-01-17T13:25:19.068Z,1.60
2019-01-17T13:27:48.713Z,1.50
2019-01-17T13:30:20.270Z,1.20
2019-01-17T13:32:49.793Z,1.10
2019-01-17T13:35:19.195Z,1.50
2019-01-17T13:37:48.473Z,1.37
2019-01-17T13:40:19.918Z,1.43
2019-01-17T13:42:49.195Z,1.40
2019-01-17T13:45:20.040Z,1.30
2019-01-17T13:47:49.556Z,1.30
2019-01-17T13:50:19.679Z,1.37
2019-01-17T13:52:49.562Z,1.40
2019-01-17T13:55:18.840Z,1.20
2019-01-17T13:57:48.122Z,1.30
2019-01-17T14:00:22.682Z,1.43
2019-01-17T14:02:52.444Z,1.27
2019-01-17T14:05:22.324Z,1.00
2019-01-17T14:07:52.008Z,1.30
2019-01-17T14:10:21.487Z,1.20
2019-01-17T14:12:51.008Z,0.90
2019-01-17T14:15:25.570Z,0.90
2019-01-17T14:17:54.970Z,0.80
2019-01-17T14:20:24.614Z,0.90
2019-01-17T14:22:53.893Z,1.00
2019-01-17T14:25:23.293Z,1.17
2019-01-17T14:27:57.494Z,0.90
2019-01-17T14:30:29.054Z,1.23
2019-01-17T14:32:58.336Z,0.83
2019-01-17T14:35:27.616Z,1.00
2019-01-17T14:37:57.257Z,1.30
2019-01-17T14:40:26.906Z,1.00
2019-01-17T14:42:57.022Z,0.97
2019-01-17T14:45:26.421Z,1.50
2019-01-17T14:47:55.701Z,1.10
2019-01-17T14:50:27.263Z,1.20
2019-01-17T14:52:56.545Z,1.00
2019-01-17T14:55:26.307Z,1.30
2019-01-17T14:57:55.826Z,0.90
2019-01-17T15:00:28.229Z,1.10
2019-01-17T15:03:00.268Z,1.37
2019-01-17T15:05:29.670Z,1.10
2019-01-17T15:07:59.071Z,1.03
2019-01-17T15:10:31.954Z,1.20
2019-01-17T15:13:01.233Z,0.90
2019-01-17T15:15:30.999Z,1.00
2019-01-17T15:18:00.275Z,1.10
2019-01-17T15:20:30.070Z,0.90
2019-01-17T15:22:59.317Z,0.80
2019-01-17T15:25:28.599Z,0.80
2019-01-17T15:27:57.999Z,0.80
2019-01-17T15:30:27.638Z,0.90
2019-01-17T15:32:56.921Z,0.90
2019-01-17T15:35:27.044Z,1.20
2019-01-17T15:37:56.322Z,0.83
2019-01-17T15:40:27.644Z,0.70
2019-01-17T15:42:58.080Z,1.30
2019-01-17T15:45:27.527Z,1.00
2019-01-17T15:47:57.046Z,0.90
2019-01-17T15:50:26.567Z,0.90
2019-01-17T15:52:56.448Z,0.93
2019-01-17T15:55:26.452Z,1.10
2019-01-17T15:57:55.971Z,1.00
2019-01-17T16:00:27.772Z,1.13
2019-01-17T16:02:57.653Z,0.87
2019-01-17T16:05:27.531Z,0.80
2019-01-17T16:07:57.175Z,1.13
2019-01-17T16:10:27.178Z,1.00
2019-01-17T16:12:56.696Z,1.00
2019-01-17T16:15:27.550Z,1.20
2019-01-17T16:17:57.061Z,0.80
2019-01-17T16:20:26.581Z,0.80
2019-01-17T16:22:56.465Z,0.80
2019-01-17T16:25:26.463Z,0.67
2019-01-17T16:27:56.584Z,1.00
2019-01-17T16:30:32.228Z,0.73
2019-01-17T16:33:01.985Z,0.73
2019-01-17T16:35:31.866Z,1.10
2019-01-17T16:38:01.628Z,0.90
2019-01-17T16:40:31.628Z,0.80
2019-01-17T16:43:02.471Z,0.80
2019-01-17T16:45:35.657Z,0.60
2019-01-17T16:48:03.674Z,0.80
2019-01-17T16:50:33.316Z,1.50
2019-01-17T16:53:03.075Z,1.20
2019-01-17T16:55:32.839Z,1.20
2019-01-17T16:58:02.960Z,1.47
2019-01-17T17:00:43.996Z,1.10
2019-01-17T17:03:14.000Z,1.17
2019-01-17T17:05:44.005Z,1.20
2019-01-17T17:08:20.747Z,1.00
2019-01-17T17:10:52.934Z,1.10
2019-01-17T17:13:24.478Z,0.90
2019-01-17T17:15:58.545Z,1.00
2019-01-17T17:18:30.125Z,1.00
2019-01-17T17:21:02.896Z,1.03
2019-01-17T17:23:35.651Z,0.70
2019-01-17T17:29:35.160Z,0.70
2019-01-17T17:32:05.638Z,0.90
2019-01-17T17:34:43.893Z,0.80
2019-01-17T17:37:17.029Z,0.60
2019-01-17T17:39:48.606Z,0.60
2019-01-17T17:42:33.334Z,0.77
2019-01-17T17:45:05.500Z,0.70
2019-01-17T17:47:39.850Z,0.87
2019-01-17T17:50:13.911Z,1.10
2019-01-17T17:52:47.629Z,1.30
2019-01-17T17:55:20.307Z,1.37
2019-01-17T17:58:02.275Z,1.70
2019-01-17T18:00:57.983Z,2.00
2019-01-17T18:03:29.398Z,2.30
2019-01-17T18:05:59.997Z,1.60
2019-01-17T18:08:30.847Z,1.53
2019-01-17T18:11:01.797Z,1.40
2019-01-17T18:13:32.401Z,1.40
2019-01-17T18:16:03.156Z,1.30
2019-01-17T18:18:33.844Z,1.50
2019-01-17T18:21:06.230Z,1.20
2019-01-17T18:23:37.350Z,1.20
2019-01-17T18:26:08.185Z,1.00
2019-01-17T18:28:39.845Z,1.40
2019-01-17T18:31:10.604Z,1.00
2019-01-17T18:33:41.291Z,1.00
2019-01-17T18:36:12.505Z,1.20
2019-01-17T18:38:43.954Z,1.30
2019-01-17T18:41:14.895Z,1.30
2019-01-17T18:43:46.938Z,0.97
2019-01-17T18:46:18.141Z,1.00
2019-01-17T18:48:51.142Z,1.03
2019-01-17T18:51:25.468Z,1.03
2019-01-17T18:53:56.670Z,1.00
2019-01-17T18:56:27.497Z,1.00
2019-01-17T18:58:59.065Z,0.80
2019-01-17T19:01:29.455Z,0.90
2019-01-17T19:03:59.649Z,0.80
2019-01-17T19:06:30.532Z,1.37
2019-01-17T19:09:00.490Z,1.20
2019-01-17T19:11:30.247Z,1.10
2019-01-17T19:14:00.370Z,1.23
2019-01-17T19:16:30.248Z,0.90
2019-01-17T19:19:00.129Z,1.33
2019-01-17T19:21:30.130Z,1.40
2019-01-17T19:23:59.789Z,1.57
2019-01-17T19:26:29.533Z,1.60
2019-01-17T19:28:59.182Z,1.87
2019-01-17T19:31:29.055Z,1.77
2019-01-17T19:33:59.056Z,2.00
2019-01-17T19:36:29.059Z,1.70
2019-01-17T19:38:59.320Z,1.50
2019-01-17T19:41:29.067Z,2.00
2019-01-17T19:43:59.540Z,1.83
2019-01-17T19:46:36.291Z,1.80
2019-01-17T19:49:06.273Z,1.90
2019-01-17T20:15:56.943Z,1.67
2019-01-17T20:18:27.189Z,1.70
2019-01-17T20:20:55.957Z,1.43
2019-01-17T20:23:54.272Z,1.23
2019-01-17T20:26:23.556Z,1.37
2019-01-17T20:28:52.798Z,1.10
2019-01-17T20:31:21.857Z,1.20
2019-01-17T20:33:50.665Z,1.10
2019-01-17T20:36:24.363Z,1.20
2019-01-17T20:38:59.888Z,1.03
2019-01-17T20:41:49.255Z,1.10
2019-01-17T20:44:18.278Z,0.90
2019-01-17T20:46:48.392Z,1.10
2019-01-17T20:49:17.220Z,1.00
2019-01-17T20:51:46.081Z,1.00
2019-01-17T20:54:14.965Z,1.40
2019-01-17T20:56:43.756Z,1.20
2019-01-17T20:59:13.741Z,1.20
2019-01-17T21:02:01.917Z,1.20
2019-01-17T21:04:30.726Z,1.30
2019-01-17T21:07:05.489Z,1.00
2019-01-17T21:09:30.046Z,1.10
2019-01-17T21:11:58.909Z,1.10
2019-01-17T21:14:27.960Z,1.03
2019-01-17T21:16:57.023Z,1.00
2019-01-17T21:19:27.012Z,1.00
2019-01-17T21:21:56.090Z,1.40
2019-01-17T21:24:24.960Z,1.47
2019-01-17T21:26:53.814Z,1.30
2019-01-17T21:29:22.684Z,0.93
2019-01-17T21:34:42.735Z,1.30
2019-01-17T21:37:11.488Z,1.30
2019-01-17T21:39:42.446Z,1.30
2019-01-17T21:42:11.286Z,1.20
2019-01-17T21:44:40.699Z,1.20
2019-01-17T21:47:10.660Z,1.50
2019-01-17T21:49:47.521Z,1.70
2019-01-17T21:52:16.555Z,1.50
2019-01-17T21:54:45.533Z,1.80
2019-01-17T22:24:16.849Z,1.50
2019-01-17T22:26:45.951Z,1.50
2019-01-17T22:29:14.838Z,1.40
2019-01-17T22:31:43.630Z,1.70
2019-01-17T22:34:12.557Z,1.80
2019-01-17T22:36:41.657Z,1.43
2019-01-17T22:39:10.936Z,1.70
2019-01-17T22:41:39.933Z,1.93
2019-01-17T22:44:10.436Z,1.50
2019-01-17T22:46:39.571Z,1.60
2019-01-17T22:49:08.855Z,1.63
2019-01-17T22:51:37.797Z,1.43
2019-01-17T22:54:06.651Z,1.43
2019-01-17T22:56:35.573Z,1.37
2019-01-17T22:59:09.196Z,1.40
2019-01-17T23:01:35.548Z,1.50
2019-01-17T23:04:06.219Z,1.40
2019-01-17T23:06:35.211Z,1.40
2019-01-17T23:09:06.450Z,1.43
2019-01-17T23:11:35.355Z,1.40
2019-01-17T23:14:05.599Z,1.50
2019-01-17T23:16:35.061Z,1.37
2019-01-17T23:19:04.447Z,1.50
2019-01-17T23:21:33.613Z,1.43
2019-01-17T23:24:02.734Z,1.30
2019-01-17T23:26:34.019Z,1.40
2019-01-17T23:29:15.916Z,1.53
2019-01-17T23:31:41.973Z,1.20
2019-01-17T23:34:10.919Z,1.50
2019-01-17T23:36:39.791Z,1.50
2019-01-17T23:39:10.830Z,1.40
2019-01-17T23:41:40.183Z,1.30
2019-01-17T23:44:10.058Z,1.43
2019-01-17T23:46:39.295Z,1.30
2019-01-17T23:49:08.216Z,1.30
2019-01-17T23:51:37.510Z,1.53
2019-01-17T23:54:06.461Z,1.17
2019-01-17T23:56:35.494Z,1.50
2019-01-17T23:59:04.763Z,1.60
